Time;durP1;ratioP1;P1;durP2;ratioP2;P2;SDS_P1;SDS_P2;PMS_P1;PMS_P2;Temp;Humidity;BMP_temperature;BMP_pressure;BME280_temperature;BME280_humidity;BME280_pressure;Samples;Min_cycle;Max_cycle;Signal;HPM_P1;HPM_P2
2022/10/02 00:02:40;;;;;;;4.50;1.25;;;;;;;-146.61;100.00;58846.50;5028365;28;20049;-82
2022/10/02 00:05:16;;;;;;;3.88;1.08;;;;;;;-146.61;100.00;58846.50;5036668;28;20054;-82
2022/10/02 00:07:53;;;;;;;7.47;1.00;;;;;;;-146.61;100.00;58846.50;5040810;28;20408;-81
2022/10/02 00:10:28;;;;;;;5.35;1.20;;;;;;;-146.61;100.00;58846.50;5022466;28;20053;-83
2022/10/02 00:13:11;;;;;;;2.25;1.27;;;;;;;-146.61;100.00;58846.50;5020334;28;20075;-80
2022/10/02 00:15:42;;;;;;;3.83;1.30;;;;;;;-146.61;100.00;58846.50;5019091;28;20778;-82
2022/10/02 00:18:38;;;;;;;6.18;1.70;;;;;;;-146.61;100.00;58846.50;5016892;28;20049;-81
2022/10/02 00:21:19;;;;;;;7.38;1.08;;;;;;;-146.61;100.00;58846.50;5011402;28;20065;-80
2022/10/02 00:23:56;;;;;;;15.90;2.58;;;;;;;-146.61;100.00;58846.50;5014701;28;20057;-81
2022/10/02 00:26:40;;;;;;;4.13;1.20;;;;;;;-146.61;100.00;58846.50;5016865;28;20051;-82
2022/10/02 00:29:28;;;;;;;3.63;0.60;;;;;;;-146.61;100.00;58846.50;5017820;28;20145;-80
2022/10/02 00:35:16;;;;;;;7.57;1.52;;;;;;;-146.61;100.00;58846.50;5015129;28;20157;-82
2022/10/02 00:38:01;;;;;;;6.43;1.30;;;;;;;-146.61;100.00;58846.50;5022215;28;20045;-80
2022/10/02 00:40:53;;;;;;;2.83;1.08;;;;;;;-146.61;100.00;58846.50;5017688;28;20073;-81
2022/10/02 00:43:35;;;;;;;5.43;1.00;;;;;;;-146.61;100.00;58846.50;5027097;28;20072;-82
2022/10/02 00:46:26;;;;;;;4.35;1.30;;;;;;;-146.61;100.00;58846.50;5041008;28;20147;-81
2022/10/02 00:52:46;;;;;;;5.75;2.10;;;;;;;-146.61;100.00;58846.50;4987519;28;20382;-79
2022/10/02 00:55:28;;;;;;;4.68;1.25;;;;;;;-146.61;100.00;58846.50;5023415;28;20112;-80
2022/10/02 00:58:20;;;;;;;6.47;1.80;;;;;;;-146.61;100.00;58846.50;5028557;28;20068;-81
2022/10/02 01:01:24;;;;;;;9.57;1.30;;;;;;;-146.61;100.00;58846.50;5030676;28;20099;-84
2022/10/02 01:03:55;;;;;;;2.83;1.17;;;;;;;-146.61;100.00;58846.50;5009118;28;20153;-81
2022/10/02 01:06:28;;;;;;;8.10;2.13;;;;;;;-146.61;100.00;58846.50;5042509;28;20053;-82
2022/10/02 01:08:57;;;;;;;10.15;2.08;;;;;;;-146.61;100.00;58846.50;5008846;28;20033;-83
2022/10/02 01:11:29;;;;;;;9.43;2.00;;;;;;;-146.61;100.00;58846.50;5025395;28;20041;-81
2022/10/02 01:14:04;;;;;;;1.92;0.90;;;;;;;-146.61;100.00;58846.50;5025227;28;20053;-81
2022/10/02 01:16:33;;;;;;;7.25;1.95;;;;;;;-146.61;100.00;58846.50;5026822;28;20045;-79
2022/10/02 01:19:07;;;;;;;7.57;1.33;;;;;;;-146.61;100.00;58846.50;5042408;28;20125;-81
2022/10/02 01:21:48;;;;;;;6.50;1.35;;;;;;;-146.61;100.00;58846.50;5042052;28;20132;-81
2022/10/02 01:24:38;;;;;;;;;;;;;;;;;;;;;
2022/10/02 01:27:31;;;;;;;6.28;2.08;;;;;;;-146.61;100.00;58846.50;5048178;28;20053;-82
2022/10/02 01:30:12;;;;;;;13.18;2.78;;;;;;;-146.61;100.00;58846.50;5053711;28;20049;-82
2022/10/02 01:33:04;;;;;;;7.93;2.30;;;;;;;-146.61;100.00;58846.50;5057930;28;20124;-84
2022/10/02 01:35:35;;;;;;;;;;;;;;;-146.61;100.00;58846.50;5055239;28;20041;-83
2022/10/02 01:38:10;;;;;;;5.50;2.40;;;;;;;-146.61;100.00;58846.50;5056140;28;19921;-82
2022/10/02 01:40:39;;;;;;;6.68;1.02;;;;;;;-146.61;100.00;58846.50;5050553;28;20092;-84
2022/10/02 01:43:35;;;;;;;9.65;2.03;;;;;;;-146.61;100.00;58846.50;5046931;28;20103;-82
2022/10/02 01:46:53;;;;;;;8.73;1.98;;;;;;;-146.61;100.00;58846.50;5043735;28;20045;-81
2022/10/02 01:49:48;;;;;;;5.07;2.05;;;;;;;-146.61;100.00;58846.50;5010946;28;20063;-82
2022/10/02 01:52:31;;;;;;;7.28;1.67;;;;;;;-146.61;100.00;58846.50;5031250;28;20711;-80
2022/10/02 01:55:37;;;;;;;4.15;1.88;;;;;;;-146.61;100.00;58846.50;5041164;28;20752;-80
2022/10/02 01:58:51;;;;;;;10.10;3.55;;;;;;;-146.61;100.00;58846.50;5023332;28;20049;-79
2022/10/02 02:01:33;;;;;;;14.90;3.15;;;;;;;-146.61;100.00;58846.50;5009524;28;20050;-79
2022/10/02 02:04:18;;;;;;;6.45;2.72;;;;;;;-146.61;100.00;58846.50;5018712;28;20046;-80
2022/10/02 02:07:01;;;;;;;15.68;3.97;;;;;;;-146.61;100.00;58846.50;5022521;28;20049;-83
2022/10/02 02:09:38;;;;;;;9.57;2.90;;;;;;;-146.61;100.00;58846.50;5026782;28;20051;-79
2022/10/02 02:12:40;;;;;;;6.82;2.60;;;;;;;-146.61;100.00;58846.50;5029873;28;20147;-80
2022/10/02 02:15:15;;;;;;;6.80;2.17;;;;;;;-146.61;100.00;58846.50;5022823;28;20508;-81
2022/10/02 02:17:58;;;;;;;9.73;2.85;;;;;;;-146.61;100.00;58846.50;5021627;28;20052;-84
2022/10/02 02:20:41;;;;;;;9.85;2.70;;;;;;;-146.61;100.00;58846.50;5022572;28;20045;-83
2022/10/02 02:23:14;;;;;;;11.00;2.53;;;;;;;-146.61;100.00;58846.50;5024364;28;20050;-82
2022/10/02 02:25:45;;;;;;;9.93;2.53;;;;;;;-146.61;100.00;58846.50;5023109;28;20037;-81
2022/10/02 02:28:16;;;;;;;12.85;2.72;;;;;;;-146.61;100.00;58846.50;5024343;28;20076;-80
2022/10/02 02:30:46;;;;;;;11.05;2.67;;;;;;;-146.61;100.00;58846.50;5028631;28;20052;-79
2022/10/02 02:33:25;;;;;;;13.73;3.47;;;;;;;-146.61;100.00;58846.50;5026815;28;20037;-80
2022/10/02 02:35:56;;;;;;;10.40;2.97;;;;;;;-146.61;100.00;58846.50;5006787;28;20052;-81
2022/10/02 02:38:38;;;;;;;5.53;3.22;;;;;;;-146.61;100.00;58846.50;5025440;28;20485;-83
2022/10/02 02:41:15;;;;;;;6.57;3.30;;;;;;;-146.61;100.00;58846.50;5025055;28;20037;-81
2022/10/02 02:44:09;;;;;;;;;;;;;;;-146.61;100.00;58846.50;5026803;28;20045;-82
2022/10/02 02:49:29;;;;;;;12.27;3.80;;;;;;;-146.61;100.00;58846.50;5030916;28;20124;-82
2022/10/02 02:51:59;;;;;;;18.48;4.13;;;;;;;-146.61;100.00;58846.50;5026457;28;20099;-80
2022/10/02 02:54:36;;;;;;;14.48;3.75;;;;;;;-146.61;100.00;58846.50;5024310;28;20824;-80
2022/10/02 02:57:04;;;;;;;14.20;4.47;;;;;;;-146.61;100.00;58846.50;5023708;28;20049;-81
2022/10/02 02:59:33;;;;;;;16.15;4.70;;;;;;;-146.61;100.00;58846.50;5027552;28;20117;-80
2022/10/02 03:02:00;;;;;;;12.68;4.43;;;;;;;-146.61;100.00;58846.50;5025899;28;20060;-81
2022/10/02 03:04:27;;;;;;;16.08;5.80;;;;;;;-146.61;100.00;58846.50;5013878;28;21371;-82
2022/10/02 03:07:01;;;;;;;13.98;5.80;;;;;;;-146.61;100.00;58846.50;5022607;28;20033;-81
2022/10/02 03:09:31;;;;;;;16.58;6.07;;;;;;;-146.61;100.00;58846.50;5004718;28;20436;-82
2022/10/02 03:12:16;;;;;;;13.65;5.75;;;;;;;-146.61;100.00;58846.50;5025492;28;20550;-83
2022/10/02 03:15:07;;;;;;;18.17;6.80;;;;;;;-146.61;100.00;58846.50;5005664;28;20530;-80
2022/10/02 03:17:57;;;;;;;10.88;5.55;;;;;;;-146.61;100.00;58846.50;5021540;28;20087;-82
2022/10/02 03:20:54;;;;;;;15.27;5.82;;;;;;;-146.61;100.00;58846.50;5023171;28;20057;-83
2022/10/02 03:23:55;;;;;;;15.50;6.13;;;;;;;-146.61;100.00;58846.50;5023088;28;20063;-81
2022/10/02 03:26:44;;;;;;;17.55;5.88;;;;;;;-146.61;100.00;58846.50;5033095;28;20056;-82
2022/10/02 03:29:21;;;;;;;16.08;6.50;;;;;;;-146.61;100.00;58846.50;5029866;28;20057;-82
2022/10/02 03:31:50;;;;;;;18.58;8.00;;;;;;;-146.61;100.00;58846.50;5026076;28;20096;-81
2022/10/02 03:34:18;;;;;;;13.38;6.88;;;;;;;-146.61;100.00;58846.50;5019565;28;20143;-80
2022/10/02 03:36:46;;;;;;;18.02;7.55;;;;;;;-146.61;100.00;58846.50;5023547;28;20103;-80
2022/10/02 03:39:13;;;;;;;14.10;7.13;;;;;;;-146.61;100.00;58846.50;5023060;28;20049;-81
2022/10/02 03:41:40;;;;;;;15.55;7.60;;;;;;;-146.61;100.00;58846.50;5021979;28;20045;-83
2022/10/02 03:44:07;;;;;;;19.75;9.27;;;;;;;-146.61;100.00;58846.50;5023659;28;20049;-82
2022/10/02 03:46:33;;;;;;;10.98;7.38;;;;;;;-146.61;100.00;58846.50;5024114;28;20116;-81
2022/10/02 03:49:00;;;;;;;24.85;9.10;;;;;;;-146.61;100.00;58846.50;5023812;28;20068;-81
2022/10/02 03:51:27;;;;;;;15.68;7.32;;;;;;;-146.61;100.00;58846.50;5025505;28;20096;-79
2022/10/02 03:53:53;;;;;;;18.48;7.25;;;;;;;-146.61;100.00;58846.50;5021176;28;20045;-80
2022/10/02 03:56:29;;;;;;;14.68;7.93;;;;;;;-146.61;100.00;58846.50;5005620;28;20684;-80
2022/10/02 03:58:59;;;;;;;18.95;9.02;;;;;;;-146.61;100.00;58846.50;5024207;28;20045;-81
2022/10/02 04:01:32;;;;;;;18.02;7.55;;;;;;;-146.61;100.00;58846.50;5024068;28;20045;-81
2022/10/02 04:04:10;;;;;;;22.08;7.97;;;;;;;-146.61;100.00;58846.50;5018031;28;20306;-80
2022/10/02 04:06:49;;;;;;;17.77;7.35;;;;;;;-146.61;100.00;58846.50;5024069;28;20049;-82
2022/10/02 04:09:33;;;;;;;14.35;5.65;;;;;;;-146.61;100.00;58846.50;5017176;28;20423;-81
2022/10/02 04:12:13;;;;;;;11.95;6.30;;;;;;;-146.61;100.00;58846.50;5019100;28;20040;-83
2022/10/02 04:14:53;;;;;;;10.73;5.32;;;;;;;-146.61;100.00;58846.50;5015780;28;20396;-83
2022/10/02 04:17:28;;;;;;;14.73;5.28;;;;;;;-146.61;100.00;58846.50;5023636;28;21078;-81
2022/10/02 04:20:06;;;;;;;14.82;5.70;;;;;;;-146.61;100.00;58846.50;5039362;28;20045;-80
2022/10/02 04:22:40;;;;;;;9.38;5.78;;;;;;;-146.61;100.00;58846.50;5015771;28;20064;-81
2022/10/02 04:25:14;;;;;;;21.90;6.28;;;;;;;-146.61;100.00;58846.50;5021230;28;20049;-80
2022/10/02 04:27:48;;;;;;;13.40;5.93;;;;;;;-146.61;100.00;58846.50;5007668;28;20443;-82
2022/10/02 04:30:16;;;;;;;14.88;6.57;;;;;;;-146.61;100.00;58846.50;5025062;28;20537;-81
2022/10/02 04:32:43;;;;;;;19.20;7.72;;;;;;;-146.61;100.00;58846.50;5028907;28;20383;-81
2022/10/02 04:35:33;;;;;;;12.50;7.10;;;;;;;-146.61;100.00;58846.50;5022631;28;20068;-83
2022/10/02 04:38:34;;;;;;;15.02;7.50;;;;;;;-146.61;100.00;58846.50;5031421;28;20057;-80
2022/10/02 04:41:28;;;;;;;15.75;6.60;;;;;;;-146.61;100.00;58846.50;5027671;28;20097;-82
2022/10/02 04:44:09;;;;;;;15.80;7.70;;;;;;;-146.61;100.00;58846.50;5022993;28;20400;-81
2022/10/02 04:46:51;;;;;;;18.55;8.10;;;;;;;-146.61;100.00;58846.50;5023681;28;20116;-80
2022/10/02 04:49:26;;;;;;;17.67;8.05;;;;;;;-146.61;100.00;58846.50;5021145;28;20048;-81
2022/10/02 04:52:20;;;;;;;14.35;8.30;;;;;;;-146.61;100.00;58846.50;5021228;28;20037;-82
2022/10/02 04:54:57;;;;;;;20.48;8.07;;;;;;;-146.61;100.00;58846.50;5017910;28;20116;-81
2022/10/02 04:58:01;;;;;;;20.05;8.93;;;;;;;-146.61;100.00;58846.50;5021022;28;20064;-80
2022/10/02 05:00:36;;;;;;;24.70;9.25;;;;;;;-146.61;100.00;58846.50;5025385;28;20065;-80
2022/10/02 05:03:02;;;;;;;21.50;9.02;;;;;;;-146.61;100.00;58846.50;5038483;28;20123;-80
2022/10/02 05:06:09;;;;;;;19.52;9.85;;;;;;;-146.61;100.00;58846.50;5021278;28;20042;-84
2022/10/02 05:08:57;;;;;;;26.92;9.27;;;;;;;-146.61;100.00;58846.50;5022672;28;20046;-82
2022/10/02 05:11:53;;;;;;;17.13;9.82;;;;;;;-146.61;100.00;58846.50;5020356;28;20054;-81
2022/10/02 05:14:36;;;;;;;18.63;7.60;;;;;;;-146.61;100.00;58846.50;5019034;28;20060;-81
2022/10/02 05:17:30;;;;;;;16.02;8.52;;;;;;;-146.61;100.00;58846.50;5023945;28;20825;-82
2022/10/02 05:20:41;;;;;;;22.42;8.18;;;;;;;-146.61;100.00;58846.50;5024518;28;20045;-81
2022/10/02 05:23:30;;;;;;;16.42;6.65;;;;;;;-146.61;100.00;58846.50;5006247;28;20111;-81
2022/10/02 05:26:24;;;;;;;17.17;9.15;;;;;;;-146.61;100.00;58846.50;5020055;28;20053;-83
2022/10/02 05:29:24;;;;;;;26.27;9.05;;;;;;;-146.61;100.00;58846.50;5025161;28;20045;-84
2022/10/02 05:31:57;;;;;;;20.17;9.23;;;;;;;-146.61;100.00;58846.50;5025902;28;20049;-83
2022/10/02 05:34:45;;;;;;;16.38;8.70;;;;;;;-146.61;100.00;58846.50;5031430;28;20046;-80
2022/10/02 05:37:46;;;;;;;19.08;9.70;;;;;;;-146.61;100.00;58846.50;5022797;28;20049;-83
2022/10/02 05:40:39;;;;;;;22.67;10.95;;;;;;;-146.61;100.00;58846.50;5024176;28;20072;-82
2022/10/02 05:43:41;;;;;;;17.45;10.20;;;;;;;-146.61;100.00;58846.50;5024995;28;20141;-81
2022/10/02 05:46:26;;;;;;;26.42;10.88;;;;;;;-146.61;100.00;58846.50;5025693;28;20115;-82
2022/10/02 05:49:14;;;;;;;19.10;11.02;;;;;;;-146.61;100.00;58846.50;5026683;28;20511;-83
2022/10/02 05:51:54;;;;;;;17.92;10.82;;;;;;;-146.61;100.00;58846.50;5025707;28;20038;-80
2022/10/02 05:54:34;;;;;;;23.38;11.43;;;;;;;-146.61;100.00;58846.50;5024426;28;20049;-81
2022/10/02 05:57:33;;;;;;;17.52;10.60;;;;;;;-146.61;100.00;58846.50;5027313;28;20070;-80
2022/10/02 06:00:28;;;;;;;19.98;11.18;;;;;;;-146.61;100.00;58846.50;5031145;28;20476;-81
2022/10/02 06:02:57;;;;;;;20.55;11.73;;;;;;;-146.61;100.00;58846.50;5027869;28;20184;-81
2022/10/02 06:05:45;;;;;;;19.10;9.85;;;;;;;-146.61;100.00;58846.50;5025870;28;20041;-83
2022/10/02 06:08:16;;;;;;;20.55;10.38;;;;;;;-146.61;100.00;58846.50;5025738;28;20053;-80
2022/10/02 06:10:54;;;;;;;17.23;9.82;;;;;;;-146.61;100.00;58846.50;5028387;28;20034;-80
2022/10/02 06:13:30;;;;;;;21.60;11.23;;;;;;;-146.61;100.00;58846.50;5030000;28;20049;-81
2022/10/02 06:16:19;;;;;;;21.20;10.25;;;;;;;-146.61;100.00;58846.50;5031127;28;20049;-83
2022/10/02 06:18:53;;;;;;;18.60;9.45;;;;;;;-146.61;100.00;58846.50;5047081;28;20124;-80
2022/10/02 06:21:31;;;;;;;16.02;9.07;;;;;;;-146.61;100.00;58846.50;5049642;28;20061;-82
2022/10/02 06:24:03;;;;;;;15.52;10.10;;;;;;;-146.61;100.00;58846.50;5053403;28;20046;-79
2022/10/02 06:26:39;;;;;;;17.52;10.90;;;;;;;-146.61;100.00;58846.50;5047648;28;20050;-80
2022/10/02 06:29:14;;;;;;;23.85;9.50;;;;;;;-146.61;100.00;58846.50;5053496;28;20064;-83
2022/10/02 06:31:50;;;;;;;20.95;10.45;;;;;;;-146.61;100.00;58846.50;5055352;28;20072;-81
2022/10/02 06:34:17;;;;;;;18.05;9.15;;;;;;;-146.61;100.00;58846.50;5051379;28;20029;-82
2022/10/02 06:36:51;;;;;;;19.52;8.60;;;;;;;-146.61;100.00;58846.50;5047640;28;20034;-80
2022/10/02 06:39:56;;;;;;;17.23;9.05;;;;;;;-146.61;100.00;58846.50;5033233;28;20042;-82
2022/10/02 06:42:26;;;;;;;14.75;8.13;;;;;;;-146.61;100.00;58846.50;5028927;28;20976;-82
2022/10/02 06:45:20;;;;;;;16.45;7.50;;;;;;;-146.61;100.00;58846.50;5031867;28;20041;-81
2022/10/02 06:48:02;;;;;;;11.77;8.38;;;;;;;-146.61;100.00;58846.50;5027281;28;20046;-84
2022/10/02 06:50:36;;;;;;;17.67;6.63;;;;;;;-146.61;100.00;58846.50;5027172;28;20052;-82
2022/10/02 06:53:34;;;;;;;15.75;6.18;;;;;;;-146.61;100.00;58846.50;5027461;28;20100;-83
2022/10/02 06:56:10;;;;;;;15.77;5.15;;;;;;;-146.61;100.00;58846.50;5039979;28;20053;-84
2022/10/02 06:59:11;;;;;;;9.95;4.82;;;;;;;-146.61;100.00;58846.50;5008237;28;20072;-83
2022/10/02 07:01:57;;;;;;;9.75;3.75;;;;;;;-146.61;100.00;58846.50;5023597;28;20160;-83
2022/10/02 07:04:41;;;;;;;11.45;3.97;;;;;;;-146.61;100.00;58846.50;5021851;28;20050;-84
2022/10/02 07:07:19;;;;;;;;;;;;;;;-146.61;100.00;58846.50;5024309;28;20037;-84
2022/10/02 07:10:09;;;;;;;10.57;3.90;;;;;;;-146.61;100.00;58846.50;5025541;28;20036;-83
2022/10/02 07:13:31;;;;;;;15.45;4.72;;;;;;;-146.61;100.00;58846.50;5023285;28;20042;-82
2022/10/02 07:16:17;;;;;;;11.52;3.45;;;;;;;-146.61;100.00;58846.50;4984168;28;20058;-81
2022/10/02 07:19:11;;;;;;;5.10;3.00;;;;;;;-146.61;100.00;58846.50;5034395;28;20060;-82
2022/10/02 07:22:07;;;;;;;8.75;4.20;;;;;;;-146.61;100.00;58846.50;5026833;28;20045;-81
2022/10/02 07:25:08;;;;;;;12.55;4.20;;;;;;;-146.61;100.00;58846.50;5021658;28;20148;-81
2022/10/02 07:27:53;;;;;;;10.73;4.45;;;;;;;-146.61;100.00;58846.50;5021040;28;20065;-82
2022/10/02 07:30:22;;;;;;;11.52;4.75;;;;;;;-146.61;100.00;58846.50;5023564;28;20445;-82
2022/10/02 07:33:17;;;;;;;9.25;4.07;;;;;;;-146.61;100.00;58846.50;5025858;28;20054;-84
2022/10/02 07:35:58;;;;;;;16.58;5.30;;;;;;;-146.61;100.00;58846.50;5050292;28;20493;-82
2022/10/02 07:38:50;;;;;;;13.77;5.35;;;;;;;-146.61;100.00;58846.50;5034494;28;20053;-82
2022/10/02 07:41:36;;;;;;;11.43;5.32;;;;;;;-146.61;100.00;58846.50;5025692;28;20065;-82
2022/10/02 07:44:30;;;;;;;9.60;3.78;;;;;;;-146.61;100.00;58846.50;5023952;28;20042;-81
2022/10/02 07:47:18;;;;;;;10.40;3.27;;;;;;;-146.61;100.00;58846.50;5024604;28;20080;-84
2022/10/02 07:49:54;;;;;;;8.75;3.72;;;;;;;-146.61;100.00;58846.50;5022466;28;20076;-79
2022/10/02 07:52:29;;;;;;;8.45;4.10;;;;;;;-146.61;100.00;58846.50;5019891;28;20052;-83
2022/10/02 07:55:17;;;;;;;11.27;3.25;;;;;;;-146.61;100.00;58846.50;5014259;28;20060;-82
2022/10/02 07:58:11;;;;;;;10.65;3.67;;;;;;;-146.61;100.00;58846.50;5021782;28;20115;-79
2022/10/02 08:01:01;;;;;;;11.60;3.30;;;;;;;-146.61;100.00;58846.50;5020975;28;20091;-80
2022/10/02 08:03:34;;;;;;;8.25;3.35;;;;;;;-146.61;100.00;58846.50;5017122;28;20045;-84
2022/10/02 08:06:03;;;;;;;12.05;3.35;;;;;;;-146.61;100.00;58846.50;5030318;28;20073;-81
2022/10/02 08:08:47;;;;;;;13.02;3.30;;;;;;;-146.61;100.00;58846.50;5014872;28;20492;-82
2022/10/02 08:11:35;;;;;;;14.32;3.72;;;;;;;-146.61;100.00;58846.50;5017119;28;20974;-82
2022/10/02 08:14:17;;;;;;;9.73;3.53;;;;;;;-146.61;100.00;58846.50;5026077;28;20049;-82
2022/10/02 08:16:56;;;;;;;9.80;4.50;;;;;;;-146.61;100.00;58846.50;5026732;28;20048;-81
2022/10/02 08:19:28;;;;;;;10.82;4.00;;;;;;;-146.61;100.00;58846.50;5023350;28;20056;-83
2022/10/02 08:22:12;;;;;;;12.50;3.72;;;;;;;-146.61;100.00;58846.50;5037401;28;20503;-82
2022/10/02 08:24:46;;;;;;;10.10;2.78;;;;;;;-146.61;100.00;58846.50;5036793;28;20412;-82
2022/10/02 08:27:30;;;;;;;6.72;3.17;;;;;;;-146.61;100.00;58846.50;5039353;28;20072;-81
2022/10/02 08:30:03;;;;;;;9.00;3.65;;;;;;;-146.61;100.00;58846.50;5030104;28;20516;-80
2022/10/02 08:32:36;;;;;;;7.65;3.50;;;;;;;-146.61;100.00;58846.50;5024329;28;20041;-82
2022/10/02 08:35:15;;;;;;;;;;;;;;;-146.61;100.00;58846.50;5022412;28;20107;-80
2022/10/02 08:38:05;;;;;;;11.70;3.20;;;;;;;-146.61;100.00;58846.50;5020792;28;19929;-83
2022/10/02 08:40:51;;;;;;;11.65;2.88;;;;;;;-146.61;100.00;58846.50;5023242;28;20734;-83
2022/10/02 08:43:29;;;;;;;7.85;2.53;;;;;;;-146.61;100.00;58846.50;5037808;28;20056;-84
2022/10/02 08:46:17;;;;;;;11.82;3.45;;;;;;;-146.61;100.00;58846.50;5023041;28;20049;-81
2022/10/02 08:48:57;;;;;;;9.13;2.72;;;;;;;-146.61;100.00;58846.50;5023629;28;20054;-83
2022/10/02 08:52:04;;;;;;;9.65;3.75;;;;;;;-146.61;100.00;58846.50;5021495;28;20041;-83
2022/10/02 08:54:59;;;;;;;12.68;3.63;;;;;;;-146.61;100.00;58846.50;5021026;28;20842;-83
2022/10/02 08:57:57;;;;;;;8.82;2.67;;;;;;;-146.61;100.00;58846.50;5020328;28;20041;-82
2022/10/02 09:00:54;;;;;;;14.57;3.72;;;;;;;-146.61;100.00;58846.50;5021763;28;20045;-82
2022/10/02 09:03:50;;;;;;;8.15;3.13;;;;;;;-146.61;100.00;58846.50;5025918;28;20717;-82
2022/10/02 09:06:53;;;;;;;13.00;2.63;;;;;;;-146.61;100.00;58846.50;5020737;28;20060;-83
2022/10/02 09:09:44;;;;;;;10.70;2.95;;;;;;;-146.61;100.00;58846.50;5026795;28;20046;-83
2022/10/02 09:12:29;;;;;;;12.20;3.33;;;;;;;-146.61;100.00;58846.50;5026836;28;20124;-82
2022/10/02 09:15:00;;;;;;;12.70;3.70;;;;;;;-146.61;100.00;58846.50;5023609;28;20060;-79
2022/10/02 09:17:48;;;;;;;14.15;3.70;;;;;;;-146.61;100.00;58846.50;5028169;28;20063;-80
2022/10/02 09:20:50;;;;;;;12.48;2.58;;;;;;;-146.61;100.00;58846.50;5024440;28;20504;-83
2022/10/02 09:24:05;;;;;;;10.18;2.63;;;;;;;-146.61;100.00;58846.50;5023768;28;20800;-82
2022/10/02 09:26:57;;;;;;;10.15;3.25;;;;;;;-146.61;100.00;58846.50;5026225;28;20054;-81
2022/10/02 09:29:49;;;;;;;9.00;2.42;;;;;;;-146.61;100.00;58846.50;5026875;28;20076;-84
2022/10/02 09:32:34;;;;;;;11.30;2.55;;;;;;;-146.61;100.00;58846.50;5027497;28;20068;-80
2022/10/02 09:35:49;;;;;;;10.60;2.88;;;;;;;-146.61;100.00;58846.50;5024433;28;20490;-82
2022/10/02 09:38:31;;;;;;;;;;;;;;;-146.61;100.00;58846.50;4993039;28;20052;-82
2022/10/02 09:41:16;;;;;;;6.40;2.58;;;;;;;-146.61;100.00;58846.50;5026810;28;19932;-81
2022/10/02 09:44:22;;;;;;;10.07;2.47;;;;;;;-146.61;100.00;58846.50;5038414;28;20052;-82
2022/10/02 09:47:19;;;;;;;6.45;2.17;;;;;;;-146.61;100.00;58846.50;5035322;28;20099;-83
2022/10/02 09:50:13;;;;;;;6.30;2.22;;;;;;;-146.61;100.00;58846.50;5027932;28;20121;-82
2022/10/02 09:53:15;;;;;;;10.35;2.13;;;;;;;-146.61;100.00;58846.50;5026196;28;20101;-81
2022/10/02 09:56:06;;;;;;;4.72;1.88;;;;;;;-146.61;100.00;58846.50;5022851;28;20115;-83
2022/10/02 09:59:20;;;;;;;6.25;2.00;;;;;;;-146.61;100.00;58846.50;5028358;28;20046;-81
2022/10/02 10:02:02;;;;;;;4.05;1.50;;;;;;;-146.61;100.00;58846.50;5006986;28;20072;-81
2022/10/02 10:05:07;;;;;;;3.30;1.60;;;;;;;-146.61;100.00;58846.50;5026895;28;20037;-82
2022/10/02 10:08:14;;;;;;;3.33;1.60;;;;;;;-146.61;100.00;58846.50;5013766;28;20496;-81
2022/10/02 10:10:50;;;;;;;6.85;2.22;;;;;;;-146.61;100.00;58846.50;5027837;28;20091;-81
2022/10/02 10:13:39;;;;;;;7.25;1.95;;;;;;;-146.61;100.00;58846.50;5026111;28;20049;-82
2022/10/02 10:16:30;;;;;;;5.30;1.83;;;;;;;-146.61;100.00;58846.50;5031301;28;20103;-83
2022/10/02 10:19:30;;;;;;;4.00;1.77;;;;;;;-146.61;100.00;58846.50;5025383;28;20052;-81
2022/10/02 10:22:30;;;;;;;4.90;1.42;;;;;;;-146.61;100.00;58846.50;5022246;28;20571;-82
2022/10/02 10:25:03;;;;;;;8.10;1.88;;;;;;;-146.61;100.00;58846.50;5022254;28;20167;-83
2022/10/02 10:27:47;;;;;;;8.65;2.22;;;;;;;-146.61;100.00;58846.50;5007556;28;20060;-82
2022/10/02 10:30:45;;;;;;;4.18;1.50;;;;;;;-146.61;100.00;58846.50;5042192;28;20083;-81
2022/10/02 10:33:31;;;;;;;6.30;1.80;;;;;;;-146.61;100.00;58846.50;5026449;28;20399;-80
2022/10/02 10:39:44;;;;;;;9.00;2.47;;;;;;;-146.61;100.00;58846.50;5025910;28;20048;-83
2022/10/02 10:42:49;;;;;;;6.28;1.58;;;;;;;-146.61;100.00;58846.50;5029238;28;20061;-84
2022/10/02 10:45:25;;;;;;;7.93;1.88;;;;;;;-146.61;100.00;58846.50;5023094;28;20049;-83
2022/10/02 10:48:10;;;;;;;5.18;1.33;;;;;;;-146.61;100.00;58846.50;5024328;28;20162;-81
2022/10/02 10:51:29;;;;;;;5.88;1.63;;;;;;;-146.61;100.00;58846.50;5020881;28;20045;-82
2022/10/02 10:54:14;;;;;;;9.65;2.13;;;;;;;-146.61;100.00;58846.50;5028845;28;20045;-83
2022/10/02 10:56:46;;;;;;;3.72;1.77;;;;;;;-146.61;100.00;58846.50;5035759;28;20042;-84
2022/10/02 10:59:51;;;;;;;6.65;1.95;;;;;;;-146.61;100.00;58846.50;5046970;28;20033;-84
2022/10/02 11:02:52;;;;;;;5.80;1.73;;;;;;;-146.61;100.00;58846.50;5065388;28;20109;-85
2022/10/02 11:05:34;;;;;;;5.45;1.75;;;;;;;-146.61;100.00;58846.50;5050453;28;20064;-84
2022/10/02 11:08:20;;;;;;;6.80;2.03;;;;;;;-146.61;100.00;58846.50;5049533;28;20057;-85
2022/10/02 11:11:02;;;;;;;9.32;2.63;;;;;;;-146.61;100.00;58846.50;5054172;28;20045;-84
2022/10/02 11:13:54;;;;;;;8.07;1.85;;;;;;;-146.61;100.00;58846.50;5051174;28;20570;-84
2022/10/02 11:16:20;;;;;;;5.72;2.35;;;;;;;-146.61;100.00;58846.50;5058055;28;20052;-83
2022/10/02 11:19:25;;;;;;;8.48;2.08;;;;;;;-146.61;100.00;58846.50;5035393;28;20116;-83
2022/10/02 11:22:14;;;;;;;3.95;1.17;;;;;;;-146.61;100.00;58846.50;5030257;28;20053;-83
2022/10/02 11:25:00;;;;;;;6.25;2.33;;;;;;;-146.61;100.00;58846.50;5043038;28;20049;-83
2022/10/02 11:28:00;;;;;;;4.43;1.40;;;;;;;-146.61;100.00;58846.50;5027290;28;20045;-85
2022/10/02 11:30:58;;;;;;;9.20;1.92;;;;;;;-146.61;100.00;58846.50;5025887;28;20034;-83
2022/10/02 11:34:04;;;;;;;13.27;3.00;;;;;;;-146.61;100.00;58846.50;5023967;28;20053;-84
2022/10/02 11:36:48;;;;;;;11.90;2.40;;;;;;;-146.61;100.00;58846.50;5028014;28;20049;-84
2022/10/02 11:39:31;;;;;;;8.75;1.90;;;;;;;-146.61;100.00;58846.50;5027131;28;20045;-83
2022/10/02 11:42:17;;;;;;;5.03;1.03;;;;;;;-146.61;100.00;58846.50;5025965;28;20060;-83
2022/10/02 11:45:10;;;;;;;3.95;1.38;;;;;;;-146.61;100.00;58846.50;5031973;28;20422;-84
2022/10/02 11:47:58;;;;;;;3.17;0.80;;;;;;;-146.61;100.00;58846.50;5048015;28;20038;-84
2022/10/02 11:50:46;;;;;;;5.35;1.80;;;;;;;-146.61;100.00;58846.50;5035057;28;20068;-82
2022/10/02 11:53:40;;;;;;;4.03;1.30;;;;;;;-146.61;100.00;58846.50;5036543;28;20071;-82
2022/10/02 11:56:44;;;;;;;4.45;1.58;;;;;;;-146.61;100.00;58846.50;5040271;28;20049;-81
2022/10/02 11:59:37;;;;;;;4.55;1.35;;;;;;;-146.61;100.00;58846.50;5009300;28;20588;-81
2022/10/02 12:02:34;;;;;;;6.05;1.35;;;;;;;-146.61;100.00;58846.50;5024120;28;20106;-80
2022/10/02 12:05:12;;;;;;;4.85;1.50;;;;;;;-146.61;100.00;58846.50;5023153;28;20164;-82
2022/10/02 12:07:43;;;;;;;6.95;1.45;;;;;;;-146.61;100.00;58846.50;5025954;28;20051;-81
2022/10/02 12:10:43;;;;;;;10.27;2.03;;;;;;;-146.61;100.00;58846.50;5024548;28;20037;-86
2022/10/02 12:13:14;;;;;;;4.65;1.08;;;;;;;-146.61;100.00;58846.50;5027851;28;20065;-82
2022/10/02 12:15:55;;;;;;;3.35;1.00;;;;;;;-146.61;100.00;58846.50;5026692;28;20522;-80
2022/10/02 12:18:57;;;;;;;2.90;1.25;;;;;;;-146.61;100.00;58846.50;5024081;28;20078;-82
2022/10/02 12:28:21;;;;;;;6.50;1.13;;;;;;;-146.61;100.00;58846.50;5027536;28;20039;-82
2022/10/02 12:31:05;;;;;;;5.07;1.35;;;;;;;-146.61;100.00;58846.50;5023028;28;20132;-83
2022/10/02 12:34:02;;;;;;;5.50;1.10;;;;;;;-146.61;100.00;58846.50;5024237;28;20045;-80
2022/10/02 12:36:50;;;;;;;4.30;1.08;;;;;;;-146.61;100.00;58846.50;5023591;28;20045;-81
2022/10/02 12:40:08;;;;;;;7.70;1.65;;;;;;;-146.61;100.00;58846.50;5024242;28;20077;-80
2022/10/02 12:43:01;;;;;;;2.40;0.98;;;;;;;-146.61;100.00;58846.50;5019894;28;20129;-79
2022/10/02 12:45:46;;;;;;;5.30;1.35;;;;;;;-146.61;100.00;58846.50;5023851;28;20105;-79
2022/10/02 12:48:38;;;;;;;3.30;1.45;;;;;;;-146.61;100.00;58846.50;5023122;28;20480;-80